Time;durP1;ratioP1;P1;durP2;ratioP2;P2;SDS_P1;SDS_P2;PMS_P1;PMS_P2;Temp;Humidity;BMP_temperature;BMP_pressure;BME280_temperature;BME280_humidity;BME280_pressure;Samples;Min_cycle;Max_cycle;Signal;HPM_P1;HPM_P2
2022/06/08 00:00:44;;;;;;;5.72;4.00;;;;;;;15.97;100.00;100989.63;10485158;28;20521;-75
2022/06/08 00:05:44;;;;;;;3.40;2.90;;;;;;;15.96;100.00;100989.88;10501932;28;20059;-75
2022/06/08 00:10:45;;;;;;;9.98;2.33;;;;;;;15.91;100.00;100984.25;10502607;28;20051;-75
2022/06/08 00:15:45;;;;;;;14.18;4.85;;;;;;;15.88;100.00;100981.97;10503012;28;20036;-75
2022/06/08 00:20:46;;;;;;;8.85;3.67;;;;;;;15.81;100.00;100969.25;10501493;28;20135;-75
2022/06/08 00:25:46;;;;;;;11.10;5.03;;;;;;;15.64;100.00;100967.38;10502563;28;20036;-75
2022/06/08 00:30:46;;;;;;;8.15;6.45;;;;;;;15.52;100.00;100956.38;10484109;28;20064;-75
2022/06/08 00:35:47;;;;;;;18.00;8.50;;;;;;;15.33;100.00;100961.00;10502413;28;20047;-74
2022/06/08 00:41:20;;;;;;;9.27;6.43;;;;;;;15.35;100.00;100945.25;10484465;28;20028;-75
2022/06/08 00:46:21;;;;;;;11.52;8.45;;;;;;;15.41;100.00;100935.28;10501822;28;20435;-75
2022/06/08 00:51:21;;;;;;;10.95;9.40;;;;;;;15.51;100.00;100930.16;10484159;28;20035;-75
2022/06/08 00:56:26;;;;;;;9.60;7.60;;;;;;;15.58;100.00;100918.06;10500719;28;20040;-75
2022/06/08 01:01:26;;;;;;;12.50;8.95;;;;;;;15.64;100.00;100921.78;10499581;28;20043;-75
2022/06/08 01:06:27;;;;;;;12.55;8.27;;;;;;;15.70;100.00;100915.44;10483079;28;20056;-75
2022/06/08 01:11:38;;;;;;;9.05;6.50;;;;;;;15.66;100.00;100908.72;10482978;28;20024;-75
2022/06/08 01:16:41;;;;;;;8.23;7.20;;;;;;;15.60;100.00;100904.19;10500776;28;20031;-75
2022/06/08 01:21:41;;;;;;;7.80;6.07;;;;;;;15.57;100.00;100896.44;10498527;28;20028;-75
2022/06/08 01:27:20;;;;;;;8.88;6.45;;;;;;;15.43;100.00;100898.53;10481999;28;20104;-75
2022/06/08 01:32:47;;;;;;;5.90;5.05;;;;;;;15.24;100.00;100891.44;10484196;28;20420;-75
2022/06/08 01:38:02;;;;;;;6.53;4.97;;;;;;;15.08;100.00;100879.25;10469144;28;20052;-74
2022/06/08 01:43:21;;;;;;;7.50;5.28;;;;;;;15.00;100.00;100869.47;10501875;28;20028;-75
2022/06/08 01:48:45;;;;;;;7.75;5.20;;;;;;;14.98;100.00;100866.13;10499031;28;20033;-75
2022/06/08 01:54:01;;;;;;;4.70;4.30;;;;;;;14.94;100.00;100858.66;10498146;28;20028;-75
2022/06/08 01:59:02;;;;;;;7.70;5.57;;;;;;;14.88;100.00;100846.75;10498580;28;20028;-75
2022/06/08 02:04:08;;;;;;;6.40;4.95;;;;;;;14.98;100.00;100849.78;10498174;28;20109;-75
2022/06/08 02:09:34;;;;;;;13.03;5.97;;;;;;;15.00;100.00;100831.31;10499778;28;20126;-74
2022/06/08 02:14:45;;;;;;;14.20;5.10;;;;;;;15.02;100.00;100833.78;10479623;28;20041;-75
2022/06/08 02:19:48;;;;;;;5.78;3.22;;;;;;;15.01;100.00;100821.22;10479887;28;20033;-75
2022/06/08 02:25:18;;;;;;;5.32;3.85;;;;;;;15.04;100.00;100815.31;10497484;28;20102;-75
2022/06/08 02:30:20;;;;;;;5.07;3.38;;;;;;;15.12;100.00;100806.81;10490012;28;20033;-75
2022/06/08 02:35:23;;;;;;;3.08;2.88;;;;;;;15.26;100.00;100805.56;10479271;28;20385;-75
2022/06/08 02:40:30;;;;;;;5.13;3.15;;;;;;;15.28;100.00;100808.06;10480830;28;20033;-75
2022/06/08 02:45:37;;;;;;;3.42;3.10;;;;;;;15.27;100.00;100807.22;10487518;28;20421;-75
2022/06/08 02:50:39;;;;;;;10.10;4.13;;;;;;;15.37;100.00;100808.56;10487209;28;20107;-75
2022/06/08 02:55:47;;;;;;;5.72;2.83;;;;;;;15.46;100.00;100794.38;10505274;28;20040;-75
2022/06/08 03:00:51;;;;;;;3.55;3.25;;;;;;;15.55;100.00;100792.97;10487425;28;20036;-75
2022/06/08 03:06:00;;;;;;;3.60;3.03;;;;;;;15.63;100.00;100788.25;10470624;28;20537;-75
2022/06/08 03:11:02;;;;;;;3.13;2.67;;;;;;;15.62;100.00;100775.69;10470280;28;20048;-75
2022/06/08 03:16:04;;;;;;;2.35;2.15;;;;;;;15.64;100.00;100781.75;10487209;28;20020;-75
2022/06/08 03:21:06;;;;;;;12.00;3.10;;;;;;;15.65;100.00;100772.47;10486618;28;20100;-75
2022/06/08 03:26:06;;;;;;;3.03;2.75;;;;;;;15.74;100.00;100771.09;10504181;28;20060;-75
2022/06/08 03:31:07;;;;;;;2.35;2.05;;;;;;;15.76;100.00;100771.69;10503864;28;20434;-75
2022/06/08 03:36:08;;;;;;;3.03;2.33;;;;;;;15.70;100.00;100759.00;10503816;28;20033;-75
2022/06/08 03:41:10;;;;;;;4.68;1.77;;;;;;;15.62;100.00;100762.84;10503435;28;20024;-74
2022/06/08 03:46:10;;;;;;;2.35;1.75;;;;;;;15.53;100.00;100764.25;10486904;28;20087;-75
2022/06/08 03:51:12;;;;;;;4.18;2.28;;;;;;;15.48;100.00;100755.94;10503265;28;20024;-75
2022/06/08 03:56:13;;;;;;;1.92;1.83;;;;;;;15.49;100.00;100752.97;10500780;28;20033;-74
2022/06/08 04:01:13;;;;;;;2.28;2.03;;;;;;;15.47;100.00;100746.09;10469384;28;20040;-75
2022/06/08 04:06:13;;;;;;;2.83;2.05;;;;;;;15.52;100.00;100757.97;10485727;28;20055;-75
2022/06/08 04:11:14;;;;;;;4.93;1.95;;;;;;;15.57;100.00;100746.34;10503374;28;20067;-75
2022/06/08 04:16:15;;;;;;;10.90;3.17;;;;;;;15.63;100.00;100745.41;10502931;28;20043;-75
2022/06/08 04:21:16;;;;;;;2.05;1.60;;;;;;;15.70;100.00;100750.81;10501982;28;20098;-75
2022/06/08 04:26:16;;;;;;;5.43;2.30;;;;;;;15.70;100.00;100742.63;10500873;28;20063;-75
2022/06/08 04:31:17;;;;;;;4.28;2.72;;;;;;;15.73;100.00;100747.59;10484248;28;20470;-76
2022/06/08 04:36:18;;;;;;;3.85;3.50;;;;;;;15.66;100.00;100741.38;10502012;28;20115;-75
2022/06/08 04:41:18;;;;;;;7.90;2.92;;;;;;;15.61;100.00;100738.53;10501837;28;20430;-74
2022/06/08 04:46:19;;;;;;;3.17;2.95;;;;;;;15.59;100.00;100734.13;10484546;28;20024;-75
2022/06/08 04:51:19;;;;;;;8.32;2.95;;;;;;;15.62;100.00;100729.28;10501216;28;20036;-77
2022/06/08 04:56:19;;;;;;;9.82;2.72;;;;;;;15.66;100.00;100725.00;10483731;28;20047;-76
2022/06/08 05:01:20;;;;;;;4.25;2.70;;;;;;;15.79;100.00;100722.94;10502189;28;20036;-75
2022/06/08 05:06:21;;;;;;;3.00;2.33;;;;;;;15.89;100.00;100719.59;10499690;28;20064;-76
2022/06/08 05:11:21;;;;;;;5.93;2.88;;;;;;;16.13;100.00;100716.84;10502795;28;20079;-75
2022/06/08 05:16:22;;;;;;;3.35;2.38;;;;;;;16.27;100.00;100718.25;10485015;28;20036;-75
2022/06/08 05:21:22;;;;;;;2.03;1.90;;;;;;;16.37;100.00;100709.44;10500377;28;20163;-76
2022/06/08 05:26:22;;;;;;;2.33;2.13;;;;;;;16.45;100.00;100709.91;10500000;28;20024;-76
2022/06/08 05:31:23;;;;;;;6.93;2.58;;;;;;;16.58;100.00;100700.59;10499147;28;20103;-76
2022/06/08 05:36:23;;;;;;;4.47;2.45;;;;;;;16.66;100.00;100693.94;10499610;28;20048;-77
2022/06/08 05:41:24;;;;;;;3.65;2.30;;;;;;;16.71;100.00;100680.34;10499253;28;20108;-76
2022/06/08 05:46:24;;;;;;;3.72;2.35;;;;;;;16.70;100.00;100674.06;10499670;28;20087;-76
2022/06/08 05:51:24;;;;;;;3.47;2.42;;;;;;;16.66;100.00;100669.34;10499389;28;20124;-76
2022/06/08 05:56:25;;;;;;;5.32;2.65;;;;;;;16.69;100.00;100668.84;10498087;28;20401;-76
2022/06/08 06:01:25;;;;;;;2.72;2.50;;;;;;;16.77;100.00;100663.00;10498243;28;20064;-76
2022/06/08 06:06:26;;;;;;;4.25;3.13;;;;;;;17.00;100.00;100653.03;10498426;28;20441;-76
2022/06/08 06:11:26;;;;;;;9.30;3.70;;;;;;;17.17;100.00;100645.69;10496742;28;20083;-77
2022/06/08 06:16:26;;;;;;;5.13;2.95;;;;;;;17.33;100.00;100644.88;10498394;28;20033;-77
2022/06/08 06:21:27;;;;;;;3.88;2.45;;;;;;;17.27;100.00;100645.84;10499399;28;20029;-76
2022/06/08 06:26:29;;;;;;;4.68;2.70;;;;;;;17.23;100.00;100641.13;10482569;28;20115;-76
2022/06/08 06:31:39;;;;;;;10.45;3.33;;;;;;;17.24;100.00;100643.63;10481392;28;20024;-76
2022/06/08 06:36:39;;;;;;;4.43;2.55;;;;;;;17.42;100.00;100637.91;10498711;28;20369;-77
2022/06/08 06:41:40;;;;;;;6.10;3.78;;;;;;;17.62;100.00;100634.66;10497868;28;20043;-77
2022/06/08 06:46:41;;;;;;;3.45;2.67;;;;;;;17.66;100.00;100634.97;10499074;28;20446;-77
2022/06/08 06:51:41;;;;;;;11.98;3.92;;;;;;;17.83;100.00;100635.78;10496510;28;20094;-76
2022/06/08 06:56:41;;;;;;;4.60;3.60;;;;;;;18.09;100.00;100625.19;10480232;28;20037;-76
2022/06/08 07:01:42;;;;;;;9.65;4.60;;;;;;;18.49;100.00;100629.53;10497425;28;20035;-77
2022/06/08 07:06:42;;;;;;;5.70;4.40;;;;;;;18.47;99.86;100632.50;10497181;28;20624;-77
2022/06/08 07:11:43;;;;;;;8.82;4.75;;;;;;;18.49;99.52;100622.13;10498432;28;20033;-77
2022/06/08 07:16:45;;;;;;;7.00;5.10;;;;;;;18.63;100.00;100628.03;10478942;28;20039;-77
2022/06/08 07:21:45;;;;;;;5.13;4.30;;;;;;;19.21;98.66;100604.47;10497615;28;20033;-77
2022/06/08 07:26:46;;;;;;;5.57;4.40;;;;;;;19.92;95.85;100600.56;10498193;28;20046;-77
2022/06/08 07:31:46;;;;;;;9.40;5.72;;;;;;;19.76;94.14;100596.09;10505661;28;20119;-77
2022/06/08 07:36:47;;;;;;;4.65;4.20;;;;;;;19.81;93.12;100599.69;10507256;28;20366;-78
2022/06/08 07:41:49;;;;;;;6.60;4.95;;;;;;;19.63;93.97;100602.84;10505412;28;20076;-76
2022/06/08 07:46:49;;;;;;;5.00;4.65;;;;;;;19.73;95.74;100592.78;10489078;28;20037;-76
2022/06/08 07:51:53;;;;;;;5.05;4.35;;;;;;;19.74;95.87;100596.34;10507539;28;20370;-77
2022/06/08 07:56:54;;;;;;;5.15;4.65;;;;;;;20.43;91.24;100593.34;10505721;28;20443;-76
2022/06/08 08:01:54;;;;;;;4.85;4.35;;;;;;;20.67;92.84;100590.97;10491664;28;20094;-76
2022/06/08 08:06:54;;;;;;;9.10;5.07;;;;;;;20.81;92.60;100591.28;10471837;28;20065;-77
2022/06/08 08:11:55;;;;;;;7.38;5.72;;;;;;;21.43;93.37;100586.59;10509828;28;20033;-76
2022/06/08 08:16:55;;;;;;;6.97;5.53;;;;;;;21.50;87.96;100598.16;10509089;28;20119;-78
2022/06/08 08:21:56;;;;;;;7.22;4.95;;;;;;;21.18;88.27;100598.44;10510060;28;20040;-78
2022/06/08 08:26:56;;;;;;;9.80;4.97;;;;;;;20.74;89.18;100598.13;10508428;28;20043;-78
2022/06/08 08:31:57;;;;;;;4.65;4.25;;;;;;;20.27;91.76;100588.09;10491454;28;20032;-77
2022/06/08 08:36:57;;;;;;;6.05;4.20;;;;;;;20.15;93.12;100588.31;10488032;28;20024;-78
2022/06/08 08:47:38;;;;;;;14.23;4.32;;;;;;;19.30;96.06;100580.09;10482806;28;20116;-77
2022/06/08 08:52:52;;;;;;;9.85;5.03;;;;;;;18.56;98.97;100584.34;10503901;28;20436;-77
2022/06/08 08:58:01;;;;;;;8.35;4.95;;;;;;;18.43;100.00;100584.75;10506292;28;20028;-78
2022/06/08 09:03:17;;;;;;;5.60;4.68;;;;;;;18.22;100.00;100600.16;10500572;28;20063;-77
2022/06/08 09:08:19;;;;;;;12.90;6.35;;;;;;;18.13;100.00;100598.94;10501338;28;20041;-78
2022/06/08 09:13:29;;;;;;;7.35;6.65;;;;;;;17.92;100.00;100592.38;10485648;28;20089;-78
2022/06/08 09:18:34;;;;;;;13.13;5.47;;;;;;;17.64;100.00;100594.16;10502036;28;20032;-79
2022/06/08 09:23:41;;;;;;;11.90;5.35;;;;;;;17.47;100.00;100593.34;10502410;28;20068;-78
2022/06/08 09:28:41;;;;;;;9.13;6.00;;;;;;;17.21;100.00;100592.13;10498747;28;20036;-78
2022/06/08 09:33:42;;;;;;;7.85;4.65;;;;;;;17.15;100.00;100595.84;10481498;28;20377;-78
2022/06/08 09:38:42;;;;;;;5.65;5.03;;;;;;;17.19;100.00;100594.25;10499206;28;20051;-79
2022/06/08 09:44:13;;;;;;;7.20;4.32;;;;;;;16.81;100.00;100592.25;10481246;28;20040;-79
2022/06/08 09:55:12;;;;;;;8.75;4.78;;;;;;;16.50;100.00;100588.94;10498684;28;20028;-80
2022/06/08 10:00:24;;;;;;;8.98;3.45;;;;;;;16.26;100.00;100594.47;10481959;28;20477;-80
2022/06/08 10:05:48;;;;;;;3.28;2.53;;;;;;;16.17;100.00;100604.13;10480949;28;20067;-84
2022/06/08 10:11:43;;;;;;;9.27;2.42;;;;;;;15.83;100.00;100616.78;10496149;28;20040;-82
2022/06/08 10:16:51;;;;;;;6.97;2.63;;;;;;;15.69;100.00;100609.91;10499964;28;20036;-80
2022/06/08 10:21:52;;;;;;;3.55;2.88;;;;;;;15.72;100.00;100606.69;10498276;28;20123;-80
2022/06/08 10:27:02;;;;;;;7.30;3.03;;;;;;;15.79;100.00;100612.84;10499370;28;20131;-80
2022/06/08 10:32:14;;;;;;;6.47;2.20;;;;;;;15.81;100.00;100606.09;10496983;28;20029;-80
2022/06/08 10:37:17;;;;;;;6.50;2.40;;;;;;;15.48;100.00;100614.88;10497526;28;20036;-79
2022/06/08 10:42:39;;;;;;;1.90;1.50;;;;;;;15.37;100.00;100612.97;10479098;28;20021;-79
2022/06/08 10:47:40;;;;;;;4.15;2.53;;;;;;;15.35;100.00;100612.38;10497860;28;20076;-78
2022/06/08 10:52:43;;;;;;;2.97;2.25;;;;;;;15.34;100.00;100614.25;10498463;28;20032;-79
2022/06/08 10:57:50;;;;;;;4.97;2.03;;;;;;;15.22;100.00;100613.44;10498364;28;20083;-79
2022/06/08 11:03:03;;;;;;;3.28;1.63;;;;;;;15.13;100.00;100608.56;10498697;28;20036;-80
2022/06/08 11:08:06;;;;;;;10.85;2.20;;;;;;;15.15;100.00;100600.94;10505737;28;20047;-79
2022/06/08 11:13:19;;;;;;;4.22;2.15;;;;;;;15.13;100.00;100614.00;10487273;28;20064;-79
2022/06/08 11:18:48;;;;;;;5.50;1.98;;;;;;;15.08;100.00;100599.16;10510506;28;20466;-78
2022/06/08 11:24:19;;;;;;;5.55;2.10;;;;;;;15.08;100.00;100585.53;10512683;28;20450;-78
2022/06/08 11:29:23;;;;;;;2.88;1.90;;;;;;;15.27;100.00;100579.97;10489526;28;20116;-78
2022/06/08 11:35:14;;;;;;;1.95;1.85;;;;;;;15.22;100.00;100586.16;10504204;28;20118;-76
2022/06/08 11:40:27;;;;;;;2.17;1.92;;;;;;;15.35;100.00;100576.91;10494418;28;20060;-76
2022/06/08 11:45:40;;;;;;;4.30;1.90;;;;;;;15.50;100.00;100569.06;10502870;28;20033;-77
2022/06/08 11:50:44;;;;;;;4.10;1.60;;;;;;;15.56;100.00;100570.84;10502464;28;20071;-76
2022/06/08 11:55:52;;;;;;;4.63;1.70;;;;;;;15.56;100.00;100562.66;10502242;28;20033;-76
2022/06/08 12:00:59;;;;;;;3.72;1.73;;;;;;;15.86;100.00;100555.38;10485100;28;20127;-77
2022/06/08 12:06:03;;;;;;;11.82;1.95;;;;;;;15.75;100.00;100559.81;10501740;28;20061;-76
2022/06/08 12:11:03;;;;;;;1.65;1.40;;;;;;;15.83;100.00;100545.81;10501253;28;20354;-76
2022/06/08 12:16:20;;;;;;;1.92;1.83;;;;;;;15.79;100.00;100555.53;10483824;28;20032;-76
2022/06/08 12:21:48;;;;;;;3.22;2.13;;;;;;;15.75;100.00;100533.34;10500599;28;20087;-76
2022/06/08 12:27:20;;;;;;;3.15;1.73;;;;;;;15.93;100.00;100539.72;10500347;28;20036;-75
2022/06/08 12:32:27;;;;;;;2.15;2.05;;;;;;;16.06;100.00;100538.63;10493140;28;20439;-75
2022/06/08 12:37:30;;;;;;;2.15;2.00;;;;;;;16.16;100.00;100542.38;10483292;28;20032;-75
2022/06/08 12:42:34;;;;;;;2.38;1.73;;;;;;;16.28;100.00;100534.97;10483872;28;20032;-75
2022/06/08 12:47:42;;;;;;;1.83;1.40;;;;;;;16.25;100.00;100529.16;10501268;28;20032;-75
2022/06/08 12:52:43;;;;;;;2.95;1.83;;;;;;;16.25;100.00;100526.41;10483909;28;20024;-75
2022/06/08 12:57:44;;;;;;;6.93;1.67;;;;;;;16.33;100.00;100526.00;10499857;28;20028;-75
2022/06/08 13:02:44;;;;;;;2.05;1.90;;;;;;;16.53;100.00;100506.44;10499624;28;20116;-75
2022/06/08 13:07:45;;;;;;;6.70;2.38;;;;;;;16.63;100.00;100503.88;10500196;28;20128;-76
2022/06/08 13:12:47;;;;;;;5.40;2.47;;;;;;;16.96;100.00;100513.19;10481459;28;20119;-76
2022/06/08 13:17:48;;;;;;;3.95;2.42;;;;;;;17.02;100.00;100523.13;10465058;28;20033;-76
2022/06/08 13:22:48;;;;;;;3.15;2.95;;;;;;;16.67;100.00;100523.34;10499689;28;20044;-75
2022/06/08 13:27:50;;;;;;;5.13;3.30;;;;;;;16.33;100.00;100517.81;10499657;28;20028;-75
2022/06/08 13:32:50;;;;;;;3.70;3.40;;;;;;;16.14;100.00;100522.66;10482355;28;20039;-75
2022/06/08 13:37:51;;;;;;;5.18;3.83;;;;;;;16.07;100.00;100521.97;10498658;28;20067;-75
2022/06/08 13:42:51;;;;;;;3.90;3.50;;;;;;;16.01;100.00;100521.03;10483080;28;20124;-75
2022/06/08 13:47:54;;;;;;;4.40;4.00;;;;;;;15.99;100.00;100523.19;10506428;28;20115;-75
2022/06/08 13:52:56;;;;;;;7.70;4.20;;;;;;;15.98;100.00;100516.06;10500175;28;20411;-75
2022/06/08 13:57:57;;;;;;;5.35;4.35;;;;;;;16.02;100.00;100513.69;10481329;28;20036;-75
2022/06/08 14:03:06;;;;;;;6.80;4.82;;;;;;;16.03;100.00;100518.91;10497187;28;20466;-75
2022/06/08 14:13:29;;;;;;;18.77;7.85;;;;;;;16.06;100.00;100516.75;10497533;28;20036;-75
2022/06/08 14:18:34;;;;;;;17.70;9.48;;;;;;;16.09;100.00;100513.53;10479681;28;20033;-75
2022/06/08 14:23:35;;;;;;;12.75;8.82;;;;;;;16.41;100.00;100500.22;10496652;28;20039;-75
2022/06/08 14:28:35;;;;;;;23.67;9.25;;;;;;;16.67;100.00;100510.50;10479463;28;20142;-75
2022/06/08 14:33:35;;;;;;;16.52;6.72;;;;;;;16.94;100.00;100508.00;10497396;28;20040;-76
2022/06/08 14:38:36;;;;;;;18.80;7.88;;;;;;;17.04;100.00;100506.47;10500773;28;20071;-76
2022/06/08 14:43:37;;;;;;;15.25;7.63;;;;;;;17.15;100.00;100505.56;10487604;28;20033;-75
2022/06/08 14:48:39;;;;;;;16.38;5.90;;;;;;;17.09;100.00;100504.66;10487828;28;20040;-75
2022/06/08 14:53:39;;;;;;;18.77;8.15;;;;;;;17.29;100.00;100506.84;10487289;28;20020;-75
2022/06/08 14:58:41;;;;;;;13.32;5.88;;;;;;;17.31;100.00;100512.91;10504637;28;20060;-75
2022/06/08 15:03:42;;;;;;;15.60;7.32;;;;;;;17.30;100.00;100516.72;10503366;28;20035;-75
2022/06/08 15:08:42;;;;;;;12.90;5.00;;;;;;;17.40;100.00;100521.53;10502184;28;20059;-76
2022/06/08 15:13:44;;;;;;;16.80;6.13;;;;;;;17.40;100.00;100522.34;10486130;28;20052;-75
2022/06/08 15:18:44;;;;;;;21.90;6.95;;;;;;;17.40;100.00;100521.53;10503322;28;20509;-75
2022/06/08 15:23:45;;;;;;;17.10;7.38;;;;;;;17.53;100.00;100523.91;10486349;28;20119;-76
2022/06/08 15:28:45;;;;;;;29.23;7.75;;;;;;;17.59;100.00;100520.16;10502807;28;20560;-75
2022/06/08 15:33:46;;;;;;;16.08;6.13;;;;;;;17.78;100.00;100511.66;10503590;28;20033;-76
2022/06/08 15:38:53;;;;;;;9.00;5.47;;;;;;;17.91;100.00;100518.66;10503239;28;20032;-75
2022/06/08 15:43:54;;;;;;;18.30;4.18;;;;;;;17.81;100.00;100522.94;10503238;28;20032;-75
2022/06/08 15:48:56;;;;;;;12.15;4.65;;;;;;;17.86;100.00;100522.97;10502246;28;20441;-76
2022/06/08 15:54:01;;;;;;;13.15;5.55;;;;;;;17.87;100.00;100527.41;10484972;28;20110;-76
2022/06/08 15:59:13;;;;;;;15.53;6.47;;;;;;;17.74;100.00;100526.91;10486207;28;20025;-76
2022/06/08 16:04:13;;;;;;;9.95;4.53;;;;;;;17.78;100.00;100528.91;10485457;28;20029;-75
2022/06/08 16:09:14;;;;;;;17.90;4.90;;;;;;;17.76;100.00;100520.09;10505264;28;20080;-75
2022/06/08 16:14:15;;;;;;;8.75;4.85;;;;;;;17.80;100.00;100525.91;10506589;28;20073;-75
2022/06/08 16:19:16;;;;;;;17.02;4.50;;;;;;;17.75;100.00;100523.91;10506778;28;20036;-75
2022/06/08 16:24:16;;;;;;;26.10;5.95;;;;;;;17.67;100.00;100532.56;10503127;28;20048;-75
2022/06/08 16:29:17;;;;;;;10.57;6.00;;;;;;;17.80;100.00;100532.22;10501853;28;20087;-74
2022/06/08 16:34:20;;;;;;;10.95;4.28;;;;;;;17.75;100.00;100534.88;10485430;28;20135;-75
2022/06/08 16:39:20;;;;;;;17.70;6.22;;;;;;;17.80;100.00;100543.16;10502794;28;20035;-75
2022/06/08 16:44:21;;;;;;;16.88;5.93;;;;;;;17.91;100.00;100546.06;10483173;28;20036;-74
2022/06/08 16:49:22;;;;;;;19.75;4.97;;;;;;;18.04;100.00;100540.19;10499774;28;20488;-74
2022/06/08 16:54:22;;;;;;;20.15;4.22;;;;;;;18.20;100.00;100563.94;10500582;28;20082;-75
2022/06/08 16:59:38;;;;;;;14.05;5.70;;;;;;;18.33;100.00;100557.22;10500586;28;20075;-75
2022/06/08 17:04:39;;;;;;;9.10;3.75;;;;;;;18.21;100.00;100564.75;10484839;28;20033;-74
2022/06/08 17:09:40;;;;;;;13.73;3.03;;;;;;;18.15;100.00;100572.09;10465347;28;20044;-74
2022/06/08 17:14:42;;;;;;;8.07;2.88;;;;;;;18.28;100.00;100571.72;10500545;28;20032;-75
2022/06/08 17:19:42;;;;;;;24.05;4.03;;;;;;;18.40;100.00;100574.31;10499492;28;20071;-74
2022/06/08 17:24:42;;;;;;;22.77;5.90;;;;;;;18.51;100.00;100572.53;10499603;28;20090;-75
2022/06/08 17:29:43;;;;;;;20.35;5.95;;;;;;;18.54;100.00;100572.00;10498552;28;20033;-74
2022/06/08 17:34:44;;;;;;;14.07;4.65;;;;;;;18.46;100.00;100566.97;10499743;28;20039;-74
2022/06/08 17:39:46;;;;;;;9.77;3.85;;;;;;;18.43;100.00;100572.97;10499097;28;20028;-74
2022/06/08 17:44:49;;;;;;;21.25;4.82;;;;;;;18.29;100.00;100589.00;10480331;28;20037;-74
2022/06/08 17:49:51;;;;;;;24.67;5.00;;;;;;;18.19;100.00;100588.84;10498255;28;20564;-74
2022/06/08 17:54:52;;;;;;;11.43;3.80;;;;;;;17.91;100.00;100598.09;10480934;28;20036;-74
2022/06/08 17:59:53;;;;;;;10.35;3.78;;;;;;;17.69;100.00;100590.66;10498467;28;20060;-74
2022/06/08 18:04:54;;;;;;;10.02;3.75;;;;;;;17.46;100.00;100601.81;10498252;28;20035;-74
2022/06/08 18:09:54;;;;;;;13.40;4.53;;;;;;;17.24;100.00;100594.34;10499725;28;20128;-75
2022/06/08 18:14:55;;;;;;;9.35;5.03;;;;;;;17.10;100.00;100599.34;10480551;28;20036;-75
2022/06/08 18:19:55;;;;;;;14.65;4.75;;;;;;;17.05;100.00;100601.97;10498089;28;20504;-74
2022/06/08 18:24:56;;;;;;;12.65;3.97;;;;;;;16.90;100.00;100605.28;10497471;28;20032;-74
2022/06/08 18:29:57;;;;;;;15.77;5.32;;;;;;;16.89;100.00;100600.06;10480435;28;20036;-74
2022/06/08 18:34:57;;;;;;;14.07;4.18;;;;;;;16.99;100.00;100621.28;10496973;28;20116;-74
2022/06/08 18:39:58;;;;;;;9.02;4.35;;;;;;;17.06;100.00;100616.47;10480482;28;20039;-75
2022/06/08 18:44:59;;;;;;;16.48;7.10;;;;;;;17.02;100.00;100620.81;10497302;28;20032;-74
2022/06/08 18:49:59;;;;;;;18.42;6.68;;;;;;;16.95;100.00;100629.16;10497121;28;20017;-73
2022/06/08 18:55:00;;;;;;;15.73;6.43;;;;;;;16.95;100.00;100634.63;10498217;28;20115;-74
2022/06/08 19:00:00;;;;;;;24.52;6.78;;;;;;;16.84;100.00;100638.25;10498017;28;20056;-74
2022/06/08 19:05:01;;;;;;;19.67;6.88;;;;;;;16.83;100.00;100642.88;10497758;28;20032;-74
2022/06/08 19:10:01;;;;;;;12.68;5.57;;;;;;;16.70;100.00;100646.72;10478364;28;20060;-74
2022/06/08 19:15:02;;;;;;;28.35;7.32;;;;;;;16.48;100.00;100641.09;10497947;28;20056;-75
2022/06/08 19:25:22;;;;;;;28.45;6.55;;;;;;;15.96;100.00;100657.50;10499861;28;20032;-74
2022/06/08 19:30:24;;;;;;;15.30;6.75;;;;;;;15.77;100.00;100664.16;10504359;28;20028;-74
2022/06/08 19:35:24;;;;;;;18.73;5.15;;;;;;;15.57;100.00;100678.97;10504097;28;20032;-74
2022/06/08 19:40:25;;;;;;;19.85;6.63;;;;;;;15.44;100.00;100676.41;10503679;28;20392;-75
2022/06/08 19:45:25;;;;;;;9.27;5.15;;;;;;;15.29;100.00;100674.16;10503046;28;20134;-74
2022/06/08 19:50:28;;;;;;;15.10;5.22;;;;;;;15.17;100.00;100662.41;10503191;28;20035;-74
2022/06/08 19:55:28;;;;;;;27.90;6.53;;;;;;;15.10;100.00;100681.59;10503426;28;20024;-74
2022/06/08 20:00:29;;;;;;;13.93;6.88;;;;;;;15.14;100.00;100686.56;10501897;28;20090;-75
2022/06/08 20:05:30;;;;;;;22.20;5.55;;;;;;;15.16;100.00;100692.66;10502655;28;20466;-74
2022/06/08 20:10:30;;;;;;;11.55;5.90;;;;;;;15.07;100.00;100694.88;10503425;28;20060;-74
2022/06/08 20:15:31;;;;;;;21.42;6.00;;;;;;;14.94;100.00;100701.34;10503019;28;20028;-75
2022/06/08 20:20:31;;;;;;;16.65;5.03;;;;;;;14.90;100.00;100705.59;10500406;28;20032;-72
2022/06/08 20:25:36;;;;;;;11.85;5.50;;;;;;;14.80;100.00;100710.75;10485509;28;20111;-73
2022/06/08 20:30:37;;;;;;;24.92;5.70;;;;;;;14.76;100.00;100704.91;10501902;28;20036;-73
2022/06/08 20:35:37;;;;;;;28.40;6.57;;;;;;;14.76;100.00;100698.66;10483003;28;20479;-73
2022/06/08 20:40:38;;;;;;;38.78;6.57;;;;;;;14.81;100.00;100715.16;10500830;28;20039;-74
2022/06/08 20:45:39;;;;;;;45.15;7.32;;;;;;;14.97;100.00;100721.88;10499978;28;20392;-73
2022/06/08 20:50:43;;;;;;;26.35;6.10;;;;;;;15.14;100.00;100722.88;10501148;28;20477;-74
2022/06/08 20:55:43;;;;;;;18.63;5.15;;;;;;;15.22;100.00;100717.09;10499392;28;20543;-73
2022/06/08 21:00:48;;;;;;;21.02;4.35;;;;;;;15.21;100.00;100717.31;10482775;28;20110;-74
2022/06/08 21:05:51;;;;;;;15.32;4.93;;;;;;;15.14;100.00;100725.59;10500665;28;20044;-74
2022/06/08 21:10:54;;;;;;;14.05;5.95;;;;;;;15.10;100.00;100727.94;10499409;28;20039;-74
2022/06/08 21:15:55;;;;;;;14.82;4.05;;;;;;;15.08;100.00;100718.34;10498242;28;20519;-74
2022/06/08 21:20:56;;;;;;;9.65;4.20;;;;;;;15.12;100.00;100724.97;10500163;28;20082;-75
2022/06/08 21:25:56;;;;;;;5.32;2.45;;;;;;;15.16;100.00;100739.00;10499695;28;20036;-74
2022/06/08 21:30:57;;;;;;;12.98;2.95;;;;;;;15.07;100.00;100749.41;10497754;28;20532;-74
2022/06/08 21:35:59;;;;;;;10.15;3.47;;;;;;;15.05;100.00;100748.78;10499448;28;20024;-75
2022/06/08 21:40:59;;;;;;;8.40;3.97;;;;;;;15.03;100.00;100749.03;10499316;28;20489;-74
2022/06/08 21:46:00;;;;;;;10.77;4.40;;;;;;;14.95;100.00;100745.78;10499566;28;20067;-74
2022/06/08 21:51:00;;;;;;;18.05;5.50;;;;;;;14.97;100.00;100743.69;10498957;28;20032;-74
2022/06/08 21:56:01;;;;;;;14.43;5.68;;;;;;;14.92;100.00;100744.34;10498922;28;20063;-73
2022/06/08 22:01:02;;;;;;;14.00;4.78;;;;;;;14.93;100.00;100740.56;10498065;28;20078;-73
2022/06/08 22:06:03;;;;;;;18.77;5.82;;;;;;;14.90;100.00;100738.31;10481114;28;20524;-73
2022/06/08 22:11:06;;;;;;;29.48;6.13;;;;;;;14.78;100.00;100740.16;10480674;28;20071;-74
2022/06/08 22:16:07;;;;;;;25.70;5.75;;;;;;;14.62;100.00;100745.16;10464606;28;20032;-74
2022/06/08 22:21:08;;;;;;;16.35;5.65;;;;;;;14.56;100.00;100742.50;10498403;28;20461;-74
2022/06/08 22:26:10;;;;;;;14.27;4.60;;;;;;;14.45;100.00;100735.88;10497834;28;20040;-74
2022/06/08 22:31:10;;;;;;;19.88;5.63;;;;;;;14.37;100.00;100741.63;10496458;28;20021;-74
2022/06/08 22:36:11;;;;;;;23.25;3.95;;;;;;;14.29;100.00;100741.94;10480262;28;20376;-74
2022/06/08 22:41:11;;;;;;;16.55;4.15;;;;;;;14.21;100.00;100740.34;10498090;28;20453;-74
2022/06/08 22:46:12;;;;;;;10.70;3.40;;;;;;;14.10;100.00;100744.66;10497512;28;20060;-74
2022/06/08 22:51:12;;;;;;;19.15;5.50;;;;;;;14.02;100.00;100752.25;10498906;28;20033;-74
2022/06/08 22:56:12;;;;;;;12.68;3.40;;;;;;;13.95;100.00;100755.06;10497475;28;20031;-74
2022/06/08 23:01:13;;;;;;;9.77;3.35;;;;;;;13.85;100.00;100757.44;10503468;28;20086;-74
2022/06/08 23:06:13;;;;;;;12.95;4.40;;;;;;;13.71;100.00;100752.09;10487334;28;20127;-73
2022/06/08 23:21:52;;;;;;;21.95;4.30;;;;;;;13.78;100.00;100778.44;10491207;28;20481;-74
2022/06/08 23:26:52;;;;;;;15.25;5.03;;;;;;;13.85;100.00;100788.22;10507962;28;20102;-74